Time;durP1;ratioP1;P1;durP2;ratioP2;P2;SDS_P1;SDS_P2;PMS_P1;PMS_P2;Temp;Humidity;BMP_temperature;BMP_pressure;BME280_temperature;BME280_humidity;BME280_pressure;Samples;Min_cycle;Max_cycle;Signal;HPM_P1;HPM_P2
2021/04/20 00:01:13;;;;;;;2.87;2.70;;;25.40;53.90;;;;;;5017132;28;20925;-79
2021/04/20 00:03:40;;;;;;;2.47;2.27;;;25.40;53.90;;;;;;5017029;28;20443;-79
2021/04/20 00:06:08;;;;;;;2.63;2.50;;;25.40;54.00;;;;;;5017029;28;20445;-79
2021/04/20 00:08:34;;;;;;;2.73;2.53;;;25.40;54.00;;;;;;5017047;28;20865;-79
2021/04/20 00:11:00;;;;;;;3.33;3.03;;;25.40;53.90;;;;;;5016981;28;20869;-79
2021/04/20 00:13:27;;;;;;;2.70;2.50;;;25.30;53.80;;;;;;5016923;28;20442;-79
2021/04/20 00:15:53;;;;;;;2.93;2.73;;;25.40;53.90;;;;;;5016851;28;20442;-79
2021/04/20 00:18:19;;;;;;;3.10;2.90;;;25.30;53.80;;;;;;5016827;28;20539;-79
2021/04/20 00:20:46;;;;;;;2.27;2.17;;;25.30;53.90;;;;;;5016788;28;20473;-79
2021/04/20 00:23:13;;;;;;;2.93;2.73;;;25.30;53.90;;;;;;5016517;28;20455;-79
2021/04/20 00:25:40;;;;;;;2.30;2.20;;;25.30;53.90;;;;;;5016726;28;20797;-79
2021/04/20 00:28:06;;;;;;;2.43;2.33;;;25.30;53.80;;;;;;5016741;28;20447;-79
2021/04/20 00:30:34;;;;;;;2.97;2.77;;;25.30;53.80;;;;;;5016368;28;20448;-81
2021/04/20 00:33:00;;;;;;;3.37;3.17;;;25.30;53.80;;;;;;5016622;28;20447;-79
2021/04/20 00:35:26;;;;;;;2.20;2.10;;;25.30;53.90;;;;;;5016703;28;20473;-79
2021/04/20 00:37:53;;;;;;;2.73;2.60;;;25.30;53.90;;;;;;5016387;28;20494;-79
2021/04/20 00:40:20;;;;;;;2.93;2.73;;;25.30;53.80;;;;;;5016640;28;20450;-79
2021/04/20 00:42:49;;;;;;;2.40;2.20;;;25.30;53.80;;;;;;5016663;28;20507;-79
2021/04/20 00:45:16;;;;;;;3.30;3.00;;;25.20;53.80;;;;;;5016530;28;20439;-79
2021/04/20 00:47:43;;;;;;;3.13;2.93;;;25.20;53.80;;;;;;5016298;28;20545;-79
2021/04/20 00:50:12;;;;;;;3.00;2.70;;;25.30;53.80;;;;;;5016168;28;20576;-94
2021/04/20 00:52:38;;;;;;;2.67;2.47;;;25.20;53.80;;;;;;5016341;28;20442;-80
2021/04/20 00:55:06;;;;;;;3.27;3.07;;;25.20;53.80;;;;;;5016391;28;20449;-79
2021/04/20 00:57:33;;;;;;;3.10;2.90;;;25.20;53.80;;;;;;5016221;28;20489;-79
2021/04/20 01:00:00;;;;;;;2.73;2.53;;;25.20;53.80;;;;;;5016229;28;20542;-79
2021/04/20 01:02:26;;;;;;;3.10;2.90;;;25.20;53.80;;;;;;5016185;28;20446;-94
2021/04/20 01:04:53;;;;;;;2.40;2.30;;;25.20;53.80;;;;;;5015915;28;20443;-79
2021/04/20 01:07:19;;;;;;;3.27;2.87;;;25.20;53.80;;;;;;5016174;28;20450;-80
2021/04/20 01:09:48;;;;;;;2.80;2.60;;;25.20;53.80;;;;;;5015929;28;20443;-88
2021/04/20 01:12:15;;;;;;;2.70;2.50;;;25.20;53.80;;;;;;5015896;28;20469;-79
2021/04/20 01:14:43;;;;;;;2.70;2.50;;;25.20;53.80;;;;;;5015932;28;20799;-79
2021/04/20 01:17:10;;;;;;;2.77;2.57;;;25.20;53.80;;;;;;5015675;28;20959;-79
2021/04/20 01:19:37;;;;;;;3.00;2.80;;;25.20;53.80;;;;;;5015927;28;20447;-94
2021/04/20 01:22:04;;;;;;;2.57;2.37;;;25.20;53.80;;;;;;5015523;28;20554;-79
2021/04/20 01:24:33;;;;;;;2.50;2.30;;;25.20;53.80;;;;;;5015780;28;20447;-94
2021/04/20 01:27:00;;;;;;;2.50;2.40;;;25.20;53.80;;;;;;5015807;28;20446;-79
2021/04/20 01:29:26;;;;;;;2.70;2.50;;;25.20;53.80;;;;;;5015612;28;20608;-79
2021/04/20 01:31:53;;;;;;;3.23;3.03;;;25.10;53.80;;;;;;5015344;28;20545;-79
2021/04/20 01:34:20;;;;;;;2.60;2.43;;;25.20;53.80;;;;;;5015464;28;20442;-79
2021/04/20 01:36:46;;;;;;;2.43;2.23;;;25.10;53.70;;;;;;5015469;28;20445;-79
2021/04/20 01:39:13;;;;;;;2.60;2.40;;;25.10;53.70;;;;;;5014999;28;20486;-79
2021/04/20 01:41:42;;;;;;;2.63;2.50;;;25.10;53.70;;;;;;5015295;28;20777;-94
2021/04/20 01:44:08;;;;;;;2.30;2.20;;;25.10;53.70;;;;;;5016711;28;20506;-79
2021/04/20 01:46:35;;;;;;;3.30;3.10;;;25.10;53.70;;;;;;5016342;28;20539;-79
2021/04/20 01:49:02;;;;;;;4.10;2.93;;;25.10;53.70;;;;;;5016150;28;20952;-88
2021/04/20 01:51:28;;;;;;;2.60;2.50;;;25.10;53.70;;;;;;5017895;28;20502;-78
2021/04/20 01:53:56;;;;;;;2.43;2.33;;;25.10;53.60;;;;;;5015434;28;20456;-78
2021/04/20 01:56:22;;;;;;;2.60;2.50;;;25.10;53.60;;;;;;5015645;28;20499;-79
2021/04/20 01:58:50;;;;;;;2.77;2.60;;;25.10;53.60;;;;;;5014960;28;20979;-79
2021/04/20 02:01:18;;;;;;;2.60;2.40;;;25.10;53.60;;;;;;5014908;28;20533;-78
2021/04/20 02:03:46;;;;;;;3.30;3.10;;;25.10;53.60;;;;;;5014795;28;20454;-78
2021/04/20 02:06:13;;;;;;;2.37;2.20;;;25.10;53.60;;;;;;5014351;28;20561;-79
2021/04/20 02:08:40;;;;;;;3.10;2.87;;;25.10;53.60;;;;;;5014815;28;20476;-78
2021/04/20 02:11:08;;;;;;;2.57;2.40;;;25.10;53.50;;;;;;5014747;28;20485;-78
2021/04/20 02:13:35;;;;;;;2.90;2.70;;;25.10;53.50;;;;;;5014849;28;21002;-78
2021/04/20 02:16:03;;;;;;;2.90;2.70;;;25.10;53.60;;;;;;5014858;28;20452;-78
2021/04/20 02:18:31;;;;;;;3.30;3.00;;;25.10;53.60;;;;;;5014442;28;20543;-79
2021/04/20 02:20:58;;;;;;;2.97;2.77;;;25.10;53.60;;;;;;5014576;28;20866;-79
2021/04/20 02:23:25;;;;;;;2.90;2.70;;;25.10;53.50;;;;;;5014518;28;20522;-79
2021/04/20 02:25:53;;;;;;;2.80;2.60;;;25.10;53.50;;;;;;5014634;28;20442;-79
2021/04/20 02:28:19;;;;;;;3.37;3.17;;;25.10;53.50;;;;;;5014447;28;20450;-94
2021/04/20 02:30:46;;;;;;;3.00;2.80;;;25.10;53.50;;;;;;5014225;28;20485;-79
2021/04/20 02:33:14;;;;;;;2.97;2.77;;;25.10;53.50;;;;;;5014476;28;20454;-78
2021/04/20 02:35:40;;;;;;;2.70;2.50;;;25.10;53.50;;;;;;5014455;28;20576;-79
2021/04/20 02:38:08;;;;;;;3.30;3.10;;;25.10;53.60;;;;;;5014256;28;20900;-79
2021/04/20 02:40:36;;;;;;;2.90;2.70;;;25.10;53.50;;;;;;5014225;28;20453;-79
2021/04/20 02:43:03;;;;;;;2.50;2.40;;;25.10;53.50;;;;;;5014220;28;20441;-86
2021/04/20 02:45:31;;;;;;;2.60;2.40;;;25.10;53.60;;;;;;5014207;28;20446;-79
2021/04/20 02:47:57;;;;;;;2.70;2.53;;;25.10;53.60;;;;;;5014229;28;20521;-79
2021/04/20 02:50:26;;;;;;;3.07;2.87;;;25.10;53.60;;;;;;5014039;28;20470;-80
2021/04/20 02:52:54;;;;;;;2.90;2.70;;;25.10;54.20;;;;;;5014085;28;20846;-78
2021/04/20 02:55:21;;;;;;;3.00;2.80;;;25.10;53.70;;;;;;5014170;28;20447;-79
2021/04/20 02:57:51;;;;;;;2.87;2.67;;;25.10;53.60;;;;;;5013762;28;20846;-79
2021/04/20 03:00:20;;;;;;;2.53;2.43;;;25.30;53.70;;;;;;5013959;28;20446;-79
2021/04/20 03:02:51;;;;;;;3.03;2.83;;;25.00;53.60;;;;;;5013856;28;21025;-79
2021/04/20 03:05:19;;;;;;;2.77;2.63;;;25.00;53.60;;;;;;5013879;28;20445;-79
2021/04/20 03:07:47;;;;;;;2.90;2.70;;;25.00;53.60;;;;;;5013825;28;20462;-79
2021/04/20 03:10:16;;;;;;;2.80;2.60;;;25.10;53.60;;;;;;5013763;28;20542;-79
2021/04/20 03:12:43;;;;;;;2.80;2.60;;;25.00;53.50;;;;;;5014028;28;20802;-79
2021/04/20 03:15:12;;;;;;;3.17;2.97;;;25.00;53.60;;;;;;5013817;28;20529;-79
2021/04/20 03:17:39;;;;;;;2.93;2.63;;;25.00;53.50;;;;;;5012897;28;20490;-79
2021/04/20 03:20:07;;;;;;;2.60;2.40;;;25.10;53.60;;;;;;5013557;28;20474;-95
2021/04/20 03:22:34;;;;;;;2.93;2.73;;;25.00;53.50;;;;;;5013922;28;20453;-79
2021/04/20 03:25:20;;;;;;;2.73;2.53;;;25.00;53.50;;;;;;5013686;28;20477;-79
2021/04/20 03:27:48;;;;;;;2.63;2.43;;;25.10;53.60;;;;;;5013915;28;20948;-79
2021/04/20 03:30:17;;;;;;;3.00;2.80;;;25.00;53.50;;;;;;5013437;28;20537;-78
2021/04/20 03:32:48;;;;;;;2.90;2.70;;;25.00;53.50;;;;;;5013635;28;20446;-79
2021/04/20 03:35:19;;;;;;;3.03;2.83;;;25.10;53.60;;;;;;5013772;28;20794;-78
2021/04/20 03:37:51;;;;;;;2.43;2.27;;;25.00;53.50;;;;;;5013375;28;20494;-79
2021/04/20 03:40:20;;;;;;;2.80;2.60;;;25.00;53.60;;;;;;5013355;28;20465;-79
2021/04/20 03:42:51;;;;;;;2.40;2.20;;;25.00;53.60;;;;;;5013494;28;20450;-79
2021/04/20 03:45:22;;;;;;;2.50;2.30;;;25.00;53.50;;;;;;5013405;28;20449;-79
2021/04/20 03:47:52;;;;;;;2.60;2.50;;;25.00;53.50;;;;;;5013452;28;20451;-79
2021/04/20 03:50:23;;;;;;;2.13;2.03;;;25.00;53.60;;;;;;5013368;28;20495;-96
2021/04/20 03:52:54;;;;;;;2.37;2.27;;;25.00;53.50;;;;;;5013590;28;20445;-79
2021/04/20 03:55:25;;;;;;;2.57;2.37;;;25.00;53.50;;;;;;5013456;28;20466;-79
2021/04/20 03:57:52;;;;;;;3.10;2.90;;;25.00;53.40;;;;;;5013023;28;21004;-78
2021/04/20 04:00:20;;;;;;;3.00;2.80;;;25.00;53.50;;;;;;5013363;28;20800;-79
2021/04/20 04:02:48;;;;;;;2.83;2.63;;;25.00;53.50;;;;;;5013395;28;20937;-79
2021/04/20 04:05:17;;;;;;;2.67;2.50;;;25.00;53.40;;;;;;5013477;28;20450;-78
2021/04/20 04:07:46;;;;;;;2.50;2.40;;;25.00;53.50;;;;;;5013135;28;20450;-80
2021/04/20 04:10:14;;;;;;;2.73;2.53;;;25.00;53.50;;;;;;5013169;28;20446;-95
2021/04/20 04:12:43;;;;;;;2.83;2.63;;;25.00;53.50;;;;;;5013438;28;20529;-78
2021/04/20 04:15:11;;;;;;;2.77;2.57;;;25.00;53.50;;;;;;5013131;28;21003;-78
2021/04/20 04:17:39;;;;;;;2.67;2.47;;;25.00;53.50;;;;;;5013016;28;20488;-91
2021/04/20 04:20:07;;;;;;;3.00;2.80;;;25.00;53.50;;;;;;5013121;28;20461;-79
2021/04/20 04:22:37;;;;;;;2.90;2.70;;;25.00;53.40;;;;;;5013010;28;20453;-78
2021/04/20 04:25:06;;;;;;;2.77;2.57;;;25.00;53.40;;;;;;5013198;28;21050;-79
2021/04/20 04:27:35;;;;;;;2.50;2.40;;;25.00;53.40;;;;;;5013499;28;20437;-79
2021/04/20 04:30:07;;;;;;;3.00;2.80;;;25.00;53.40;;;;;;5016749;28;20450;-94
2021/04/20 04:32:34;;;;;;;2.50;2.30;;;25.00;53.40;;;;;;5016567;28;20468;-79
2021/04/20 04:35:03;;;;;;;2.70;2.50;;;25.00;53.40;;;;;;5017005;28;20439;-79
2021/04/20 04:37:29;;;;;;;2.60;2.50;;;25.00;53.30;;;;;;5016572;28;20438;-94
2021/04/20 04:39:57;;;;;;;2.70;2.60;;;25.00;53.30;;;;;;5016560;28;20503;-78
2021/04/20 04:42:24;;;;;;;2.50;2.40;;;25.00;53.40;;;;;;5016360;28;20497;-78
2021/04/20 04:44:50;;;;;;;1.97;1.87;;;25.00;53.40;;;;;;5016622;28;20912;-79
2021/04/20 04:47:18;;;;;;;2.83;2.63;;;25.00;53.50;;;;;;5016464;28;20444;-79
2021/04/20 04:49:46;;;;;;;2.47;2.37;;;25.00;53.40;;;;;;5016313;28;20441;-78
2021/04/20 04:52:14;;;;;;;2.40;2.30;;;25.00;53.40;;;;;;5016385;28;20472;-79
2021/04/20 04:54:41;;;;;;;2.97;2.77;;;25.00;53.40;;;;;;5016340;28;20503;-79
2021/04/20 04:57:11;;;;;;;2.60;2.40;;;25.00;53.30;;;;;;5016241;28;20450;-78
2021/04/20 04:59:39;;;;;;;2.47;2.37;;;25.00;53.40;;;;;;5015897;28;20492;-79
2021/04/20 05:02:07;;;;;;;2.60;2.40;;;25.00;53.40;;;;;;5015998;28;20504;-78
2021/04/20 05:04:35;;;;;;;2.50;2.40;;;25.00;53.30;;;;;;5016245;28;20443;-79
2021/04/20 05:07:02;;;;;;;2.20;2.10;;;25.00;53.40;;;;;;5016228;28;20443;-95
2021/04/20 05:09:28;;;;;;;3.00;2.80;;;25.00;53.40;;;;;;5016028;28;20452;-79
2021/04/20 05:11:54;;;;;;;2.40;2.20;;;25.00;53.40;;;;;;5015923;28;20495;-79
2021/04/20 05:14:22;;;;;;;2.30;2.10;;;25.00;53.60;;;;;;5015969;28;20820;-95
2021/04/20 05:16:51;;;;;;;2.67;2.47;;;25.00;53.60;;;;;;5015869;28;20505;-79
2021/04/20 05:19:24;;;;;;;2.53;2.33;;;25.20;53.70;;;;;;5015750;28;21059;-79
2021/04/20 05:21:51;;;;;;;3.90;2.73;;;25.00;53.40;;;;;;5015720;28;20474;-79
2021/04/20 05:24:19;;;;;;;2.30;2.20;;;25.00;53.40;;;;;;5015671;28;20461;-78
2021/04/20 05:26:46;;;;;;;2.17;2.07;;;25.00;53.50;;;;;;5015824;28;20446;-79
2021/04/20 05:29:12;;;;;;;2.83;2.63;;;25.10;53.60;;;;;;5015730;28;20447;-78
2021/04/20 05:31:38;;;;;;;3.10;2.90;;;25.10;54.10;;;;;;5015291;28;20964;-79
2021/04/20 05:34:06;;;;;;;3.30;3.00;;;25.10;53.50;;;;;;5015584;28;20933;-79
2021/04/20 05:36:33;;;;;;;2.23;2.10;;;25.10;53.60;;;;;;5015500;28;20454;-78
2021/04/20 05:39:03;;;;;;;2.13;2.03;;;25.10;53.60;;;;;;5014966;28;20493;-79
2021/04/20 05:41:31;;;;;;;2.50;2.40;;;25.10;53.60;;;;;;5014942;28;20534;-79
2021/04/20 05:43:59;;;;;;;2.60;2.40;;;25.10;53.60;;;;;;5015542;28;20449;-79
2021/04/20 05:46:26;;;;;;;2.80;2.60;;;25.20;53.70;;;;;;5015248;28;20528;-79
2021/04/20 05:48:54;;;;;;;2.60;2.40;;;25.10;53.80;;;;;;5015434;28;20452;-95
2021/04/20 05:51:22;;;;;;;2.50;2.30;;;25.10;53.70;;;;;;5014768;28;20562;-94
2021/04/20 05:53:50;;;;;;;2.80;2.60;;;25.10;53.90;;;;;;5015073;28;20439;-94
2021/04/20 05:56:19;;;;;;;2.60;2.40;;;25.10;53.90;;;;;;5015105;28;20572;-80
2021/04/20 05:58:46;;;;;;;2.20;2.10;;;25.10;54.00;;;;;;5015143;28;20997;-79
2021/04/20 06:01:12;;;;;;;2.70;2.50;;;25.10;54.10;;;;;;5015249;28;20443;-92
2021/04/20 06:03:42;;;;;;;4.37;2.73;;;25.10;54.10;;;;;;5015093;28;20445;-79
2021/04/20 06:06:09;;;;;;;2.30;2.10;;;25.10;54.10;;;;;;5014963;28;20803;-78
2021/04/20 06:08:37;;;;;;;2.80;2.60;;;25.20;54.30;;;;;;5015036;28;20836;-78
2021/04/20 06:11:04;;;;;;;4.47;2.70;;;25.20;54.20;;;;;;5015054;28;20435;-93
2021/04/20 06:13:32;;;;;;;2.40;2.30;;;25.20;54.30;;;;;;5015149;28;20442;-78
2021/04/20 06:15:59;;;;;;;2.80;2.60;;;25.20;54.30;;;;;;5014755;28;20443;-93
2021/04/20 06:18:26;;;;;;;2.70;2.50;;;25.20;54.30;;;;;;5014785;28;20861;-79
2021/04/20 06:20:55;;;;;;;2.70;2.53;;;25.20;54.30;;;;;;5014940;28;20470;-79
2021/04/20 06:23:22;;;;;;;2.83;2.63;;;25.20;54.40;;;;;;5014989;28;20445;-83
2021/04/20 06:25:50;;;;;;;3.27;2.97;;;25.20;54.40;;;;;;5014734;28;20852;-79
2021/04/20 06:28:17;;;;;;;3.00;2.80;;;25.20;54.40;;;;;;5014721;28;20929;-79
2021/04/20 06:30:44;;;;;;;4.90;2.83;;;25.20;54.50;;;;;;5014361;28;20475;-78
2021/04/20 06:33:11;;;;;;;3.00;2.80;;;25.20;54.50;;;;;;5014922;28;20461;-79
2021/04/20 06:35:38;;;;;;;2.90;2.70;;;25.20;54.50;;;;;;5015121;28;20439;-79
2021/04/20 06:38:05;;;;;;;2.90;2.70;;;25.20;54.60;;;;;;5015004;28;20521;-79
2021/04/20 06:40:36;;;;;;;3.53;2.70;;;25.20;54.60;;;;;;5018024;28;20945;-91
2021/04/20 06:43:04;;;;;;;2.70;2.17;;;25.20;54.60;;;;;;5024340;28;20427;-79
2021/04/20 06:45:35;;;;;;;3.60;2.90;;;25.30;54.70;;;;;;5014658;28;20446;-94
2021/04/20 06:48:12;;;;;;;3.13;2.93;;;25.30;54.80;;;;;;5014521;28;20437;-78
2021/04/20 06:50:39;;;;;;;3.73;2.70;;;25.30;54.80;;;;;;5013887;28;20528;-79
2021/04/20 06:53:13;;;;;;;3.13;2.93;;;25.30;54.80;;;;;;5013419;28;20451;-78
2021/04/20 06:55:47;;;;;;;8.13;2.23;;;25.30;54.70;;;;;;5013734;28;20447;-78
2021/04/20 06:58:20;;;;;;;4.00;3.13;;;25.30;54.90;;;;;;5013882;28;20498;-78
2021/04/20 07:00:50;;;;;;;3.90;3.10;;;25.30;54.80;;;;;;5014532;28;20472;-92
2021/04/20 07:03:25;;;;;;;2.90;2.60;;;25.30;54.70;;;;;;5014650;28;20450;-89
2021/04/20 07:05:58;;;;;;;3.53;3.23;;;25.30;54.70;;;;;;5014193;28;21010;-78
2021/04/20 07:08:31;;;;;;;5.87;3.40;;;25.30;54.70;;;;;;5013900;28;20446;-78
2021/04/20 07:11:00;;;;;;;6.00;3.20;;;25.40;54.70;;;;;;5013866;28;20440;-78
2021/04/20 07:13:30;;;;;;;3.93;3.13;;;25.40;54.60;;;;;;5013978;28;20788;-78
2021/04/20 07:16:04;;;;;;;4.77;3.00;;;25.40;54.70;;;;;;5013943;28;20447;-80
2021/04/20 07:19:02;;;;;;;8.03;3.63;;;25.40;54.80;;;;;;5014011;28;20521;-94
2021/04/20 07:22:06;;;;;;;4.03;3.50;;;25.50;54.70;;;;;;5013711;28;20500;-91
2021/04/20 07:24:49;;;;;;;9.83;4.27;;;25.50;54.70;;;;;;5013822;28;20509;-80
2021/04/20 07:27:32;;;;;;;3.20;2.90;;;25.50;54.80;;;;;;5020451;28;20443;-80
2021/04/20 07:30:12;;;;;;;4.63;2.90;;;25.50;54.90;;;;;;5022290;28;20453;-80
2021/04/20 07:32:53;;;;;;;9.87;3.93;;;25.50;55.00;;;;;;4974750;28;20454;-80
2021/04/20 07:35:24;;;;;;;11.03;3.70;;;25.50;55.00;;;;;;4974746;28;20969;-81
2021/04/20 07:37:55;;;;;;;4.57;2.80;;;25.60;55.10;;;;;;4974957;28;20471;-95
2021/04/20 07:40:30;;;;;;;7.90;3.30;;;25.60;55.00;;;;;;4976771;28;20455;-95
2021/04/20 07:43:11;;;;;;;5.80;2.80;;;25.60;55.10;;;;;;4976276;28;20449;-78
2021/04/20 07:45:46;;;;;;;6.40;2.60;;;25.70;55.00;;;;;;4975461;28;20455;-77
2021/04/20 07:48:22;;;;;;;5.20;3.10;;;25.60;54.90;;;;;;4975321;28;20463;-94
2021/04/20 07:50:55;;;;;;;13.83;4.40;;;25.70;55.00;;;;;;4974667;28;20563;-83
2021/04/20 07:53:30;;;;;;;5.93;4.33;;;25.70;55.20;;;;;;4974237;28;20437;-78
2021/04/20 07:56:02;;;;;;;10.10;4.27;;;25.70;55.10;;;;;;4972405;28;20953;-79
2021/04/20 07:58:37;;;;;;;9.00;4.70;;;25.70;55.10;;;;;;4972118;28;20488;-79
2021/04/20 08:01:15;;;;;;;7.93;4.60;;;25.70;55.00;;;;;;4974102;28;20893;-78
2021/04/20 08:03:47;;;;;;;6.93;3.73;;;25.70;54.90;;;;;;4976494;28;20447;-79
2021/04/20 08:06:21;;;;;;;6.20;4.30;;;25.80;55.00;;;;;;4978400;28;20441;-78
2021/04/20 08:08:50;;;;;;;6.67;3.23;;;25.70;55.00;;;;;;4977934;28;20450;-79
2021/04/20 08:11:22;;;;;;;10.10;3.67;;;25.80;55.00;;;;;;4978026;28;20447;-79
2021/04/20 08:13:54;;;;;;;8.47;3.50;;;25.80;55.10;;;;;;4978003;28;20445;-91
2021/04/20 08:16:25;;;;;;;7.33;3.33;;;25.80;55.10;;;;;;4978035;28;20774;-78
2021/04/20 08:18:57;;;;;;;15.07;3.90;;;25.80;55.10;;;;;;4977744;28;20895;-78
2021/04/20 08:21:26;;;;;;;7.73;6.53;;;25.80;55.00;;;;;;4977799;28;20457;-79
2021/04/20 08:23:54;;;;;;;8.47;7.70;;;25.80;53.90;;;;;;4977775;28;20797;-79
2021/04/20 08:26:25;;;;;;;9.63;7.90;;;26.00;51.10;;;;;;4977808;28;20445;-79
2021/04/20 08:28:57;;;;;;;9.47;8.47;;;25.90;50.50;;;;;;4977787;28;20445;-79
2021/04/20 08:31:32;;;;;;;9.07;8.17;;;25.80;50.40;;;;;;4996977;28;20489;-88
2021/04/20 08:34:18;;;;;;;14.43;5.90;;;25.60;50.60;;;;;;5020751;28;20438;-94
2021/04/20 08:36:58;;;;;;;8.90;6.00;;;25.70;51.90;;;;;;5017873;28;20508;-87
2021/04/20 08:39:36;;;;;;;5.43;4.93;;;25.70;52.20;;;;;;5016737;28;20482;-84
2021/04/20 08:42:10;;;;;;;5.40;4.90;;;25.80;52.40;;;;;;5016842;28;20500;-94
2021/04/20 08:44:47;;;;;;;5.53;4.80;;;25.80;52.50;;;;;;5016865;28;20444;-79
2021/04/20 08:47:26;;;;;;;5.00;4.47;;;25.90;52.70;;;;;;5016487;28;20443;-78
2021/04/20 08:49:56;;;;;;;6.93;4.90;;;26.00;52.80;;;;;;5016415;28;20471;-81
2021/04/20 08:52:53;;;;;;;5.60;5.10;;;26.00;52.90;;;;;;5016520;28;20761;-78
2021/04/20 08:55:37;;;;;;;4.53;4.13;;;26.00;53.00;;;;;;5016091;28;20447;-78
2021/04/20 08:58:25;;;;;;;6.13;4.77;;;26.10;53.20;;;;;;5014748;28;20483;-78
2021/04/20 09:01:02;;;;;;;5.07;4.60;;;26.20;53.30;;;;;;5016873;28;20438;-91
2021/04/20 09:03:39;;;;;;;4.50;4.20;;;26.20;53.30;;;;;;5016409;28;20513;-79
2021/04/20 09:06:09;;;;;;;5.10;4.70;;;26.20;53.40;;;;;;5016183;28;20497;-93
2021/04/20 09:08:37;;;;;;;4.77;4.37;;;26.30;53.50;;;;;;5016196;28;20450;-79
2021/04/20 09:11:10;;;;;;;11.03;8.43;;;26.30;53.60;;;;;;5015920;28;20431;-79
2021/04/20 09:13:43;;;;;;;7.30;6.70;;;26.30;50.60;;;;;;5015611;28;20774;-80
2021/04/20 09:16:16;;;;;;;5.80;5.23;;;26.20;51.40;;;;;;5015111;28;20459;-79
2021/04/20 09:18:43;;;;;;;8.57;5.00;;;26.20;52.30;;;;;;5015953;28;20492;-79
2021/04/20 09:21:17;;;;;;;8.00;6.10;;;26.20;52.60;;;;;;5015914;28;20558;-95
2021/04/20 09:24:01;;;;;;;7.27;6.60;;;26.20;53.10;;;;;;5015890;28;20528;-80
2021/04/20 09:26:37;;;;;;;7.30;5.67;;;26.20;52.70;;;;;;5015775;28;20463;-92
2021/04/20 09:29:12;;;;;;;7.37;6.70;;;26.20;52.80;;;;;;5015769;28;20960;-79
2021/04/20 09:31:45;;;;;;;8.57;7.67;;;26.20;53.10;;;;;;5015554;28;20892;-80
2021/04/20 09:34:14;;;;;;;7.43;6.30;;;26.10;52.80;;;;;;5015591;28;20617;-79
2021/04/20 09:36:41;;;;;;;6.47;5.97;;;26.10;53.10;;;;;;5015513;28;20452;-82
2021/04/20 09:39:09;;;;;;;8.40;7.70;;;26.10;53.10;;;;;;5015376;28;20541;-92
2021/04/20 09:41:39;;;;;;;6.63;6.03;;;26.20;53.00;;;;;;5015579;28;20423;-93
2021/04/20 09:44:14;;;;;;;6.93;6.17;;;26.20;52.50;;;;;;5015536;28;20514;-89
2021/04/20 09:46:52;;;;;;;6.67;6.17;;;26.20;52.70;;;;;;5015936;28;20453;-93
2021/04/20 09:49:36;;;;;;;5.27;4.77;;;26.20;52.70;;;;;;5015376;28;20458;-78
2021/04/20 09:52:09;;;;;;;5.90;5.30;;;26.20;53.00;;;;;;5015169;28;20489;-78
2021/04/20 09:54:42;;;;;;;5.20;4.43;;;26.20;52.90;;;;;;5015116;28;20443;-86
2021/04/20 09:57:10;;;;;;;4.90;4.50;;;26.20;53.00;;;;;;5015187;28;20457;-78
2021/04/20 09:59:42;;;;;;;5.03;4.63;;;26.30;53.00;;;;;;5014797;28;21001;-79
2021/04/20 10:02:32;;;;;;;5.40;4.90;;;26.40;53.00;;;;;;5015326;28;20502;-79
2021/04/20 10:05:07;;;;;;;5.40;5.00;;;26.40;53.10;;;;;;5011737;28;20458;-79
2021/04/20 10:07:56;;;;;;;5.03;4.73;;;26.40;53.20;;;;;;5014945;28;20546;-81
2021/04/20 10:10:37;;;;;;;5.33;4.83;;;26.50;53.40;;;;;;5014927;28;20829;-81
2021/04/20 10:13:31;;;;;;;4.97;4.67;;;26.50;53.60;;;;;;5015154;28;20435;-81
2021/04/20 10:16:04;;;;;;;5.60;4.70;;;26.50;53.60;;;;;;5014759;28;20450;-81
2021/04/20 10:18:40;;;;;;;5.77;5.27;;;26.60;53.70;;;;;;5014516;28;20487;-81
2021/04/20 10:21:12;;;;;;;5.77;5.27;;;26.60;53.90;;;;;;5014464;28;20470;-81
2021/04/20 10:23:48;;;;;;;6.23;4.93;;;26.50;53.60;;;;;;5015030;28;20497;-81
2021/04/20 10:26:22;;;;;;;7.40;5.00;;;26.50;53.60;;;;;;5014345;28;20447;-81
2021/04/20 10:28:55;;;;;;;4.93;4.30;;;26.50;53.60;;;;;;5014719;28;20949;-81
2021/04/20 10:31:30;;;;;;;4.70;4.30;;;26.50;53.70;;;;;;5014274;28;20475;-87
2021/04/20 10:33:56;;;;;;;4.83;4.43;;;26.60;53.70;;;;;;5014614;28;21016;-80
2021/04/20 10:36:26;;;;;;;4.67;4.27;;;26.60;53.70;;;;;;5014396;28;20804;-80
2021/04/20 10:38:56;;;;;;;5.27;4.87;;;26.60;53.70;;;;;;5014193;28;20484;-78
2021/04/20 10:41:27;;;;;;;5.07;4.67;;;26.60;53.70;;;;;;5014226;28;20448;-89
2021/04/20 10:43:54;;;;;;;4.50;3.93;;;26.70;53.60;;;;;;5014230;28;20437;-79
2021/04/20 10:46:24;;;;;;;4.20;3.90;;;26.70;53.60;;;;;;5014290;28;20447;-90
2021/04/20 10:48:53;;;;;;;4.30;3.90;;;26.70;53.60;;;;;;5014396;28;20447;-80
2021/04/20 10:51:29;;;;;;;4.70;4.20;;;26.80;53.60;;;;;;5014113;28;20464;-89
2021/04/20 10:53:57;;;;;;;6.77;4.20;;;26.90;53.60;;;;;;5014228;28;20443;-79
2021/04/20 10:56:25;;;;;;;4.57;4.17;;;26.90;53.60;;;;;;5013986;28;20489;-79
2021/04/20 10:58:55;;;;;;;4.00;3.70;;;26.90;53.60;;;;;;5014008;28;20491;-79
2021/04/20 11:01:24;;;;;;;4.10;3.80;;;27.00;53.60;;;;;;5013963;28;20449;-89
2021/04/20 11:03:53;;;;;;;4.60;4.10;;;27.00;53.70;;;;;;5013890;28;20499;-78
2021/04/20 11:06:57;;;;;;;4.20;3.90;;;27.10;53.80;;;;;;5014139;28;20469;-79
2021/04/20 11:09:31;;;;;;;4.57;4.10;;;27.30;53.80;;;;;;5013787;28;20441;-79
2021/04/20 11:11:58;;;;;;;4.93;4.47;;;27.30;53.90;;;;;;5013995;28;20449;-80
2021/04/20 11:14:37;;;;;;;5.00;4.50;;;27.30;53.90;;;;;;5013920;28;20526;-81
2021/04/20 11:17:05;;;;;;;5.60;5.10;;;27.30;53.90;;;;;;4998688;28;20550;-87
2021/04/20 11:19:36;;;;;;;5.70;5.20;;;27.30;53.60;;;;;;4994046;28;20493;-87
2021/04/20 11:22:03;;;;;;;8.17;7.47;;;27.30;53.30;;;;;;4994641;28;20794;-88
2021/04/20 11:24:35;;;;;;;27.67;23.70;;;27.20;53.30;;;;;;4994107;28;20954;-86
2021/04/20 11:27:10;;;;;;;39.10;34.63;;;27.10;53.50;;;;;;4994357;28;20444;-86
2021/04/20 11:29:43;;;;;;;21.97;19.67;;;27.00;53.70;;;;;;4994187;28;20447;-87
2021/04/20 11:32:16;;;;;;;16.33;14.53;;;27.00;53.30;;;;;;4993881;28;20546;-87
2021/04/20 11:34:48;;;;;;;16.27;14.70;;;26.90;51.70;;;;;;4994333;28;20510;-87
2021/04/20 11:37:20;;;;;;;14.53;13.13;;;26.80;52.80;;;;;;4993611;28;20463;-88
2021/04/20 11:39:52;;;;;;;13.90;11.40;;;26.80;53.10;;;;;;4993879;28;20511;-88
2021/04/20 11:42:26;;;;;;;13.23;10.27;;;26.70;53.10;;;;;;4994318;28;20440;-86
2021/04/20 11:44:57;;;;;;;11.10;9.73;;;26.70;53.10;;;;;;4993708;28;21084;-86
2021/04/20 11:47:25;;;;;;;12.20;10.83;;;26.70;53.30;;;;;;4992599;28;20539;-86
2021/04/20 11:49:55;;;;;;;10.30;9.40;;;26.70;53.30;;;;;;4992617;28;20467;-87
2021/04/20 11:52:26;;;;;;;9.87;9.07;;;26.70;53.30;;;;;;5007527;28;20442;-82
2021/04/20 11:54:58;;;;;;;8.10;7.40;;;26.70;53.20;;;;;;5012416;28;20451;-83
2021/04/20 11:57:26;;;;;;;9.17;7.77;;;26.60;53.30;;;;;;5013218;28;20924;-82
2021/04/20 11:59:53;;;;;;;7.77;7.10;;;26.60;52.20;;;;;;5012928;28;20517;-82
2021/04/20 12:02:25;;;;;;;8.17;7.47;;;26.60;52.70;;;;;;5013201;28;20469;-83
2021/04/20 12:04:53;;;;;;;8.10;7.43;;;26.60;51.50;;;;;;5013160;28;20983;-82
2021/04/20 12:07:25;;;;;;;7.80;7.10;;;26.50;50.70;;;;;;5013188;28;20501;-82
2021/04/20 12:09:52;;;;;;;7.57;6.87;;;26.50;51.90;;;;;;5013180;28;20455;-81
2021/04/20 12:12:27;;;;;;;8.23;6.20;;;26.50;51.90;;;;;;5013160;28;20470;-81
2021/04/20 12:14:54;;;;;;;8.27;5.50;;;26.50;51.80;;;;;;5013126;28;20504;-85
2021/04/20 12:17:27;;;;;;;11.40;7.20;;;26.40;51.80;;;;;;5012843;28;20859;-87
2021/04/20 12:19:55;;;;;;;11.23;8.57;;;26.40;51.80;;;;;;5012858;28;20499;-81
2021/04/20 12:22:24;;;;;;;9.47;8.03;;;26.50;51.80;;;;;;5013076;28;20532;-82
2021/04/20 12:24:52;;;;;;;8.17;7.37;;;26.40;50.70;;;;;;5013033;28;20436;-81
2021/04/20 12:27:23;;;;;;;9.17;8.40;;;26.40;51.50;;;;;;5013118;28;20443;-81
2021/04/20 12:29:51;;;;;;;10.70;9.73;;;26.40;51.80;;;;;;5013061;28;20447;-81
2021/04/20 12:32:19;;;;;;;16.60;10.37;;;26.30;52.00;;;;;;5012819;28;20471;-81
2021/04/20 12:34:52;;;;;;;21.13;12.97;;;26.30;52.00;;;;;;5013008;28;20439;-80
2021/04/20 12:37:23;;;;;;;14.60;8.70;;;26.30;51.90;;;;;;5012886;28;20449;-81
2021/04/20 12:39:57;;;;;;;9.30;8.30;;;26.40;52.10;;;;;;5012821;28;20496;-81
2021/04/20 12:42:29;;;;;;;9.13;8.10;;;26.40;51.90;;;;;;5012844;28;20439;-81
2021/04/20 12:44:58;;;;;;;8.17;7.40;;;26.50;51.80;;;;;;5012959;28;20459;-82
2021/04/20 12:47:29;;;;;;;15.53;13.40;;;26.50;51.70;;;;;;5012824;28;20453;-82
2021/04/20 12:49:58;;;;;;;10.33;6.73;;;26.50;51.60;;;;;;5015042;28;20467;-80
2021/04/20 12:52:26;;;;;;;13.17;9.20;;;26.50;51.90;;;;;;5016253;28;20443;-84
2021/04/20 12:54:57;;;;;;;13.53;9.07;;;26.60;52.00;;;;;;5016321;28;20454;-84
2021/04/20 12:57:31;;;;;;;15.97;10.43;;;26.60;51.80;;;;;;5016224;28;20797;-86
2021/04/20 13:00:02;;;;;;;15.53;8.67;;;26.60;51.90;;;;;;5016389;28;20487;-86
2021/04/20 13:02:29;;;;;;;12.60;9.83;;;26.60;51.90;;;;;;5016550;28;20465;-84